sensor_id;sensor_type;location;lat;lon;timestamp;P1;durP1;ratioP1;P2;durP2;ratioP2
7406;SDS011;3745;56.964;24.128;2023-05-29T00:01:54;5.18;;;3.10;;
7406;SDS011;3745;56.964;24.128;2023-05-29T00:04:20;4.13;;;2.90;;
7406;SDS011;3745;56.964;24.128;2023-05-29T00:06:54;7.78;;;3.20;;
7406;SDS011;3745;56.964;24.128;2023-05-29T00:09:20;4.55;;;3.25;;
7406;SDS011;3745;56.964;24.128;2023-05-29T00:11:46;4.93;;;2.88;;
7406;SDS011;3745;56.964;24.128;2023-05-29T00:14:16;4.85;;;3.17;;
7406;SDS011;3745;56.964;24.128;2023-05-29T00:16:44;6.18;;;2.92;;
7406;SDS011;3745;56.964;24.128;2023-05-29T00:19:17;3.42;;;3.05;;
7406;SDS011;3745;56.964;24.128;2023-05-29T00:21:44;7.80;;;3.10;;
7406;SDS011;3745;56.964;24.128;2023-05-29T00:24:13;6.88;;;2.92;;
7406;SDS011;3745;56.964;24.128;2023-05-29T00:26:40;6.85;;;3.25;;
7406;SDS011;3745;56.964;24.128;2023-05-29T00:29:06;6.97;;;3.42;;
7406;SDS011;3745;56.964;24.128;2023-05-29T00:31:31;5.50;;;3.08;;
7406;SDS011;3745;56.964;24.128;2023-05-29T00:33:57;3.35;;;2.70;;
7406;SDS011;3745;56.964;24.128;2023-05-29T00:36:25;6.53;;;2.95;;
7406;SDS011;3745;56.964;24.128;2023-05-29T00:38:51;3.60;;;2.40;;
7406;SDS011;3745;56.964;24.128;2023-05-29T00:41:16;7.63;;;3.15;;
7406;SDS011;3745;56.964;24.128;2023-05-29T00:43:42;8.15;;;3.28;;
7406;SDS011;3745;56.964;24.128;2023-05-29T00:46:14;3.40;;;3.10;;
7406;SDS011;3745;56.964;24.128;2023-05-29T00:48:41;5.43;;;3.15;;
7406;SDS011;3745;56.964;24.128;2023-05-29T00:51:08;10.68;;;3.22;;
7406;SDS011;3745;56.964;24.128;2023-05-29T00:53:36;11.00;;;3.13;;
7406;SDS011;3745;56.964;24.128;2023-05-29T00:56:03;8.23;;;3.00;;
7406;SDS011;3745;56.964;24.128;2023-05-29T00:58:30;3.50;;;2.72;;
7406;SDS011;3745;56.964;24.128;2023-05-29T01:00:56;8.57;;;3.17;;
7406;SDS011;3745;56.964;24.128;2023-05-29T01:03:25;8.60;;;3.00;;
7406;SDS011;3745;56.964;24.128;2023-05-29T01:05:51;5.57;;;2.65;;
7406;SDS011;3745;56.964;24.128;2023-05-29T01:08:17;5.53;;;3.17;;
7406;SDS011;3745;56.964;24.128;2023-05-29T01:10:43;3.22;;;2.92;;
7406;SDS011;3745;56.964;24.128;2023-05-29T01:13:17;9.60;;;3.13;;
7406;SDS011;3745;56.964;24.128;2023-05-29T01:15:58;4.57;;;3.03;;
7406;SDS011;3745;56.964;24.128;2023-05-29T01:18:47;4.75;;;3.30;;
7406;SDS011;3745;56.964;24.128;2023-05-29T01:27:21;4.70;;;3.30;;
7406;SDS011;3745;56.964;24.128;2023-05-29T01:29:46;4.80;;;3.08;;
7406;SDS011;3745;56.964;24.128;2023-05-29T01:32:14;6.05;;;2.90;;
7406;SDS011;3745;56.964;24.128;2023-05-29T01:34:40;6.93;;;3.40;;
7406;SDS011;3745;56.964;24.128;2023-05-29T01:37:06;4.38;;;3.25;;
7406;SDS011;3745;56.964;24.128;2023-05-29T01:39:31;10.85;;;4.25;;
7406;SDS011;3745;56.964;24.128;2023-05-29T01:42:00;5.78;;;2.95;;
7406;SDS011;3745;56.964;24.128;2023-05-29T01:44:31;7.28;;;3.42;;
7406;SDS011;3745;56.964;24.128;2023-05-29T01:46:56;4.90;;;3.22;;
7406;SDS011;3745;56.964;24.128;2023-05-29T01:49:23;10.75;;;3.00;;
7406;SDS011;3745;56.964;24.128;2023-05-29T01:51:50;4.63;;;3.40;;
7406;SDS011;3745;56.964;24.128;2023-05-29T01:54:15;6.32;;;2.80;;
7406;SDS011;3745;56.964;24.128;2023-05-29T01:56:41;6.45;;;3.10;;
7406;SDS011;3745;56.964;24.128;2023-05-29T01:59:13;7.70;;;3.03;;
7406;SDS011;3745;56.964;24.128;2023-05-29T02:01:39;4.57;;;2.95;;
7406;SDS011;3745;56.964;24.128;2023-05-29T02:04:05;8.65;;;3.25;;
7406;SDS011;3745;56.964;24.128;2023-05-29T02:06:30;11.85;;;3.40;;
7406;SDS011;3745;56.964;24.128;2023-05-29T02:08:58;5.63;;;3.08;;
7406;SDS011;3745;56.964;24.128;2023-05-29T02:11:23;6.80;;;3.30;;
7406;SDS011;3745;56.964;24.128;2023-05-29T02:13:51;5.78;;;3.22;;
7406;SDS011;3745;56.964;24.128;2023-05-29T02:16:17;10.25;;;3.42;;
7406;SDS011;3745;56.964;24.128;2023-05-29T02:18:45;4.20;;;3.13;;
7406;SDS011;3745;56.964;24.128;2023-05-29T02:21:12;5.00;;;3.22;;
7406;SDS011;3745;56.964;24.128;2023-05-29T02:23:41;6.10;;;3.58;;
7406;SDS011;3745;56.964;24.128;2023-05-29T02:26:06;5.32;;;3.13;;
7406;SDS011;3745;56.964;24.128;2023-05-29T02:28:32;5.32;;;3.28;;
7406;SDS011;3745;56.964;24.128;2023-05-29T02:30:58;4.68;;;3.20;;
7406;SDS011;3745;56.964;24.128;2023-05-29T02:33:23;4.13;;;3.15;;
7406;SDS011;3745;56.964;24.128;2023-05-29T02:35:49;3.67;;;2.97;;
7406;SDS011;3745;56.964;24.128;2023-05-29T02:38:18;11.90;;;3.22;;
7406;SDS011;3745;56.964;24.128;2023-05-29T02:40:44;5.97;;;3.13;;
7406;SDS011;3745;56.964;24.128;2023-05-29T02:43:12;4.97;;;2.90;;
7406;SDS011;3745;56.964;24.128;2023-05-29T02:45:38;4.97;;;3.33;;
7406;SDS011;3745;56.964;24.128;2023-05-29T02:48:03;7.32;;;3.45;;
7406;SDS011;3745;56.964;24.128;2023-05-29T02:50:29;4.57;;;3.05;;
7406;SDS011;3745;56.964;24.128;2023-05-29T02:52:55;7.75;;;2.95;;
7406;SDS011;3745;56.964;24.128;2023-05-29T02:55:20;7.25;;;3.17;;
7406;SDS011;3745;56.964;24.128;2023-05-29T02:57:46;7.35;;;3.03;;
7406;SDS011;3745;56.964;24.128;2023-05-29T03:00:18;8.05;;;2.95;;
7406;SDS011;3745;56.964;24.128;2023-05-29T03:02:43;4.68;;;3.08;;
7406;SDS011;3745;56.964;24.128;2023-05-29T03:05:09;6.75;;;3.28;;
7406;SDS011;3745;56.964;24.128;2023-05-29T03:07:34;5.13;;;3.08;;
7406;SDS011;3745;56.964;24.128;2023-05-29T03:10:00;8.10;;;3.28;;
7406;SDS011;3745;56.964;24.128;2023-05-29T03:12:26;6.32;;;2.92;;
7406;SDS011;3745;56.964;24.128;2023-05-29T03:14:52;3.88;;;3.38;;
7406;SDS011;3745;56.964;24.128;2023-05-29T03:17:19;8.55;;;3.17;;
7406;SDS011;3745;56.964;24.128;2023-05-29T03:19:46;6.07;;;2.97;;
7406;SDS011;3745;56.964;24.128;2023-05-29T03:22:11;5.03;;;3.20;;
7406;SDS011;3745;56.964;24.128;2023-05-29T03:24:37;3.83;;;2.83;;
7406;SDS011;3745;56.964;24.128;2023-05-29T03:27:02;9.50;;;3.35;;
7406;SDS011;3745;56.964;24.128;2023-05-29T03:29:29;6.43;;;3.13;;
7406;SDS011;3745;56.964;24.128;2023-05-29T03:31:58;7.15;;;3.15;;
7406;SDS011;3745;56.964;24.128;2023-05-29T03:34:23;6.93;;;3.20;;
7406;SDS011;3745;56.964;24.128;2023-05-29T03:36:49;6.35;;;3.40;;
7406;SDS011;3745;56.964;24.128;2023-05-29T03:39:17;8.18;;;3.80;;
7406;SDS011;3745;56.964;24.128;2023-05-29T03:41:43;5.07;;;3.13;;
7406;SDS011;3745;56.964;24.128;2023-05-29T03:44:17;12.48;;;3.65;;
7406;SDS011;3745;56.964;24.128;2023-05-29T03:46:43;6.68;;;2.78;;
7406;SDS011;3745;56.964;24.128;2023-05-29T03:49:08;6.22;;;3.35;;
7406;SDS011;3745;56.964;24.128;2023-05-29T03:51:34;7.75;;;3.58;;
7406;SDS011;3745;56.964;24.128;2023-05-29T03:54:00;3.45;;;3.22;;
7406;SDS011;3745;56.964;24.128;2023-05-29T03:56:26;7.85;;;3.28;;
7406;SDS011;3745;56.964;24.128;2023-05-29T03:58:52;5.05;;;3.08;;
7406;SDS011;3745;56.964;24.128;2023-05-29T04:01:17;11.45;;;3.58;;
7406;SDS011;3745;56.964;24.128;2023-05-29T04:03:43;28.67;;;4.00;;
7406;SDS011;3745;56.964;24.128;2023-05-29T04:06:10;8.98;;;3.70;;
7406;SDS011;3745;56.964;24.128;2023-05-29T04:08:38;7.88;;;3.95;;
7406;SDS011;3745;56.964;24.128;2023-05-29T04:11:07;8.25;;;3.53;;
7406;SDS011;3745;56.964;24.128;2023-05-29T04:13:32;8.52;;;3.95;;
7406;SDS011;3745;56.964;24.128;2023-05-29T04:15:58;11.35;;;3.30;;
7406;SDS011;3745;56.964;24.128;2023-05-29T04:18:24;7.72;;;3.45;;
7406;SDS011;3745;56.964;24.128;2023-05-29T04:20:51;8.18;;;2.95;;
7406;SDS011;3745;56.964;24.128;2023-05-29T04:23:19;5.50;;;3.72;;
7406;SDS011;3745;56.964;24.128;2023-05-29T04:25:45;5.22;;;3.03;;
7406;SDS011;3745;56.964;24.128;2023-05-29T04:28:11;4.70;;;3.30;;
7406;SDS011;3745;56.964;24.128;2023-05-29T04:30:37;8.65;;;3.60;;
7406;SDS011;3745;56.964;24.128;2023-05-29T04:33:04;8.77;;;3.85;;
7406;SDS011;3745;56.964;24.128;2023-05-29T04:35:30;6.90;;;3.80;;
7406;SDS011;3745;56.964;24.128;2023-05-29T04:37:55;5.93;;;3.47;;
7406;SDS011;3745;56.964;24.128;2023-05-29T04:40:21;8.32;;;3.55;;
7406;SDS011;3745;56.964;24.128;2023-05-29T04:42:47;8.07;;;3.78;;
7406;SDS011;3745;56.964;24.128;2023-05-29T04:45:13;5.97;;;3.22;;
7406;SDS011;3745;56.964;24.128;2023-05-29T04:47:39;9.25;;;3.60;;
7406;SDS011;3745;56.964;24.128;2023-05-29T04:50:11;7.63;;;3.50;;
7406;SDS011;3745;56.964;24.128;2023-05-29T04:52:38;5.43;;;3.90;;
7406;SDS011;3745;56.964;24.128;2023-05-29T04:55:04;10.90;;;4.07;;
7406;SDS011;3745;56.964;24.128;2023-05-29T04:57:30;6.75;;;3.50;;
7406;SDS011;3745;56.964;24.128;2023-05-29T04:59:56;4.90;;;3.40;;
7406;SDS011;3745;56.964;24.128;2023-05-29T05:02:22;4.78;;;3.40;;
7406;SDS011;3745;56.964;24.128;2023-05-29T05:04:51;7.75;;;3.97;;
7406;SDS011;3745;56.964;24.128;2023-05-29T05:07:16;6.47;;;4.13;;
7406;SDS011;3745;56.964;24.128;2023-05-29T05:09:42;5.32;;;3.90;;
7406;SDS011;3745;56.964;24.128;2023-05-29T05:12:08;10.27;;;3.85;;
7406;SDS011;3745;56.964;24.128;2023-05-29T05:14:34;10.75;;;3.75;;
7406;SDS011;3745;56.964;24.128;2023-05-29T05:16:59;11.23;;;3.95;;
7406;SDS011;3745;56.964;24.128;2023-05-29T05:19:25;7.20;;;3.78;;
7406;SDS011;3745;56.964;24.128;2023-05-29T05:21:51;9.80;;;4.38;;
7406;SDS011;3745;56.964;24.128;2023-05-29T05:24:16;9.88;;;3.83;;
7406;SDS011;3745;56.964;24.128;2023-05-29T05:26:42;12.55;;;3.80;;
7406;SDS011;3745;56.964;24.128;2023-05-29T05:29:07;12.00;;;3.67;;
7406;SDS011;3745;56.964;24.128;2023-05-29T05:31:33;7.07;;;3.60;;
7406;SDS011;3745;56.964;24.128;2023-05-29T05:33:58;88.60;;;11.35;;
7406;SDS011;3745;56.964;24.128;2023-05-29T05:36:24;5.65;;;4.15;;
7406;SDS011;3745;56.964;24.128;2023-05-29T05:38:50;8.80;;;3.67;;
7406;SDS011;3745;56.964;24.128;2023-05-29T05:41:15;15.10;;;4.60;;
7406;SDS011;3745;56.964;24.128;2023-05-29T05:43:41;23.15;;;5.60;;
7406;SDS011;3745;56.964;24.128;2023-05-29T05:46:09;7.53;;;3.63;;
7406;SDS011;3745;56.964;24.128;2023-05-29T05:48:35;13.95;;;4.22;;
7406;SDS011;3745;56.964;24.128;2023-05-29T05:51:00;13.20;;;4.60;;
7406;SDS011;3745;56.964;24.128;2023-05-29T05:53:26;11.88;;;4.07;;
7406;SDS011;3745;56.964;24.128;2023-05-29T05:55:52;6.80;;;3.60;;
7406;SDS011;3745;56.964;24.128;2023-05-29T05:58:18;4.95;;;4.40;;
7406;SDS011;3745;56.964;24.128;2023-05-29T06:00:44;6.00;;;3.58;;
7406;SDS011;3745;56.964;24.128;2023-05-29T06:03:10;10.82;;;4.00;;
7406;SDS011;3745;56.964;24.128;2023-05-29T06:05:35;7.30;;;3.85;;
7406;SDS011;3745;56.964;24.128;2023-05-29T06:08:06;12.90;;;4.22;;
7406;SDS011;3745;56.964;24.128;2023-05-29T06:10:33;4.43;;;3.83;;
7406;SDS011;3745;56.964;24.128;2023-05-29T06:12:59;7.78;;;3.72;;
7406;SDS011;3745;56.964;24.128;2023-05-29T06:15:24;5.97;;;3.70;;
7406;SDS011;3745;56.964;24.128;2023-05-29T06:17:50;6.45;;;3.80;;
7406;SDS011;3745;56.964;24.128;2023-05-29T06:20:17;4.40;;;3.97;;
7406;SDS011;3745;56.964;24.128;2023-05-29T06:22:44;3.28;;;2.97;;
7406;SDS011;3745;56.964;24.128;2023-05-29T06:25:15;6.30;;;3.47;;
7406;SDS011;3745;56.964;24.128;2023-05-29T06:27:44;11.05;;;3.75;;
7406;SDS011;3745;56.964;24.128;2023-05-29T06:30:10;9.90;;;3.53;;
7406;SDS011;3745;56.964;24.128;2023-05-29T06:32:37;3.70;;;3.25;;
7406;SDS011;3745;56.964;24.128;2023-05-29T06:35:03;7.47;;;3.63;;
7406;SDS011;3745;56.964;24.128;2023-05-29T06:37:32;5.45;;;3.80;;
7406;SDS011;3745;56.964;24.128;2023-05-29T06:40:00;6.95;;;3.42;;
7406;SDS011;3745;56.964;24.128;2023-05-29T06:42:26;4.22;;;3.28;;
7406;SDS011;3745;56.964;24.128;2023-05-29T06:44:51;4.03;;;3.35;;
7406;SDS011;3745;56.964;24.128;2023-05-29T06:47:17;6.15;;;3.40;;
7406;SDS011;3745;56.964;24.128;2023-05-29T06:49:42;6.03;;;4.00;;
7406;SDS011;3745;56.964;24.128;2023-05-29T06:52:08;6.28;;;4.00;;
7406;SDS011;3745;56.964;24.128;2023-05-29T06:54:34;11.68;;;7.10;;
7406;SDS011;3745;56.964;24.128;2023-05-29T06:56:59;9.77;;;6.20;;
7406;SDS011;3745;56.964;24.128;2023-05-29T06:59:25;9.35;;;5.90;;
7406;SDS011;3745;56.964;24.128;2023-05-29T07:01:53;7.15;;;5.40;;
7406;SDS011;3745;56.964;24.128;2023-05-29T07:04:18;6.57;;;5.72;;
7406;SDS011;3745;56.964;24.128;2023-05-29T07:06:44;12.55;;;6.70;;
7406;SDS011;3745;56.964;24.128;2023-05-29T07:09:09;15.05;;;12.43;;
7406;SDS011;3745;56.964;24.128;2023-05-29T07:11:35;17.60;;;12.02;;
7406;SDS011;3745;56.964;24.128;2023-05-29T07:14:01;22.38;;;13.20;;
7406;SDS011;3745;56.964;24.128;2023-05-29T07:16:26;20.90;;;13.07;;
7406;SDS011;3745;56.964;24.128;2023-05-29T07:18:52;19.48;;;12.38;;
7406;SDS011;3745;56.964;24.128;2023-05-29T07:21:18;17.23;;;11.20;;
7406;SDS011;3745;56.964;24.128;2023-05-29T07:23:45;11.30;;;7.97;;
7406;SDS011;3745;56.964;24.128;2023-05-29T07:26:10;12.93;;;8.75;;
7406;SDS011;3745;56.964;24.128;2023-05-29T07:28:36;15.93;;;10.05;;
7406;SDS011;3745;56.964;24.128;2023-05-29T07:31:02;23.00;;;12.00;;
7406;SDS011;3745;56.964;24.128;2023-05-29T07:33:27;15.32;;;11.30;;
7406;SDS011;3745;56.964;24.128;2023-05-29T07:35:53;14.65;;;10.90;;
7406;SDS011;3745;56.964;24.128;2023-05-29T07:38:18;14.40;;;9.93;;
7406;SDS011;3745;56.964;24.128;2023-05-29T07:40:44;17.95;;;10.77;;
7406;SDS011;3745;56.964;24.128;2023-05-29T07:43:10;18.30;;;11.57;;
7406;SDS011;3745;56.964;24.128;2023-05-29T07:45:35;15.35;;;10.52;;
7406;SDS011;3745;56.964;24.128;2023-05-29T07:48:01;19.75;;;11.07;;
7406;SDS011;3745;56.964;24.128;2023-05-29T07:50:26;22.85;;;13.30;;
7406;SDS011;3745;56.964;24.128;2023-05-29T07:52:52;25.67;;;14.70;;
7406;SDS011;3745;56.964;24.128;2023-05-29T07:55:18;22.63;;;16.33;;
7406;SDS011;3745;56.964;24.128;2023-05-29T07:57:43;20.45;;;16.10;;
7406;SDS011;3745;56.964;24.128;2023-05-29T08:00:09;17.88;;;12.07;;
7406;SDS011;3745;56.964;24.128;2023-05-29T08:02:38;11.43;;;7.50;;
7406;SDS011;3745;56.964;24.128;2023-05-29T08:05:04;18.38;;;12.10;;
7406;SDS011;3745;56.964;24.128;2023-05-29T08:07:30;7.65;;;6.85;;
7406;SDS011;3745;56.964;24.128;2023-05-29T08:09:57;8.80;;;7.40;;
7406;SDS011;3745;56.964;24.128;2023-05-29T08:12:22;20.48;;;11.38;;
7406;SDS011;3745;56.964;24.128;2023-05-29T08:14:48;19.50;;;11.63;;
7406;SDS011;3745;56.964;24.128;2023-05-29T08:17:14;16.83;;;10.32;;
7406;SDS011;3745;56.964;24.128;2023-05-29T08:19:39;16.00;;;10.73;;
7406;SDS011;3745;56.964;24.128;2023-05-29T08:22:05;16.30;;;9.52;;
7406;SDS011;3745;56.964;24.128;2023-05-29T08:24:30;17.60;;;10.02;;
7406;SDS011;3745;56.964;24.128;2023-05-29T08:26:56;16.67;;;11.05;;
7406;SDS011;3745;56.964;24.128;2023-05-29T08:29:22;14.88;;;9.65;;
7406;SDS011;3745;56.964;24.128;2023-05-29T08:31:48;17.95;;;9.68;;
7406;SDS011;3745;56.964;24.128;2023-05-29T08:34:13;10.23;;;8.02;;
7406;SDS011;3745;56.964;24.128;2023-05-29T08:36:39;16.08;;;9.20;;
7406;SDS011;3745;56.964;24.128;2023-05-29T08:39:06;14.40;;;8.43;;
7406;SDS011;3745;56.964;24.128;2023-05-29T08:42:16;18.17;;;9.70;;
7406;SDS011;3745;56.964;24.128;2023-05-29T08:44:21;16.13;;;10.52;;
7406;SDS011;3745;56.964;24.128;2023-05-29T08:46:57;13.35;;;10.70;;
7406;SDS011;3745;56.964;24.128;2023-05-29T08:49:29;16.63;;;8.65;;
7406;SDS011;3745;56.964;24.128;2023-05-29T08:51:58;11.65;;;7.53;;
7406;SDS011;3745;56.964;24.128;2023-05-29T08:54:31;10.90;;;7.85;;
7406;SDS011;3745;56.964;24.128;2023-05-29T08:56:57;11.27;;;7.95;;
7406;SDS011;3745;56.964;24.128;2023-05-29T08:59:24;11.73;;;8.60;;
7406;SDS011;3745;56.964;24.128;2023-05-29T09:01:51;16.63;;;9.02;;
7406;SDS011;3745;56.964;24.128;2023-05-29T09:04:17;14.60;;;9.50;;
7406;SDS011;3745;56.964;24.128;2023-05-29T09:06:44;14.63;;;8.90;;
7406;SDS011;3745;56.964;24.128;2023-05-29T09:09:10;14.90;;;8.68;;
7406;SDS011;3745;56.964;24.128;2023-05-29T09:11:35;15.75;;;8.38;;
7406;SDS011;3745;56.964;24.128;2023-05-29T09:14:01;10.88;;;7.10;;
7406;SDS011;3745;56.964;24.128;2023-05-29T09:16:30;11.13;;;8.00;;
7406;SDS011;3745;56.964;24.128;2023-05-29T09:19:04;10.40;;;7.55;;
7406;SDS011;3745;56.964;24.128;2023-05-29T09:21:30;6.47;;;5.80;;
7406;SDS011;3745;56.964;24.128;2023-05-29T09:24:03;6.20;;;4.97;;
7406;SDS011;3745;56.964;24.128;2023-05-29T09:26:30;6.10;;;4.90;;
7406;SDS011;3745;56.964;24.128;2023-05-29T09:28:57;8.65;;;4.53;;
7406;SDS011;3745;56.964;24.128;2023-05-29T09:31:26;5.43;;;4.93;;
7406;SDS011;3745;56.964;24.128;2023-05-29T09:33:52;8.80;;;5.75;;
7406;SDS011;3745;56.964;24.128;2023-05-29T09:36:21;5.70;;;4.72;;
7406;SDS011;3745;56.964;24.128;2023-05-29T09:38:47;5.47;;;4.97;;
7406;SDS011;3745;56.964;24.128;2023-05-29T09:41:13;10.10;;;5.45;;
7406;SDS011;3745;56.964;24.128;2023-05-29T09:43:48;8.25;;;6.32;;
7406;SDS011;3745;56.964;24.128;2023-05-29T09:46:21;6.93;;;6.22;;
7406;SDS011;3745;56.964;24.128;2023-05-29T09:48:46;7.50;;;6.68;;
7406;SDS011;3745;56.964;24.128;2023-05-29T09:51:19;5.82;;;5.18;;
7406;SDS011;3745;56.964;24.128;2023-05-29T09:53:47;10.40;;;5.88;;
7406;SDS011;3745;56.964;24.128;2023-05-29T09:56:19;12.57;;;6.43;;
7406;SDS011;3745;56.964;24.128;2023-05-29T09:58:53;6.25;;;5.43;;
7406;SDS011;3745;56.964;24.128;2023-05-29T10:01:21;7.25;;;5.13;;
7406;SDS011;3745;56.964;24.128;2023-05-29T10:03:54;7.47;;;5.47;;
7406;SDS011;3745;56.964;24.128;2023-05-29T10:06:19;7.85;;;6.05;;
7406;SDS011;3745;56.964;24.128;2023-05-29T10:08:52;6.22;;;4.97;;
7406;SDS011;3745;56.964;24.128;2023-05-29T10:11:21;7.13;;;4.00;;
7406;SDS011;3745;56.964;24.128;2023-05-29T10:13:50;10.90;;;4.18;;
7406;SDS011;3745;56.964;24.128;2023-05-29T10:16:20;5.03;;;4.00;;
7406;SDS011;3745;56.964;24.128;2023-05-29T10:18:49;6.97;;;4.47;;
7406;SDS011;3745;56.964;24.128;2023-05-29T10:21:20;6.43;;;4.22;;
7406;SDS011;3745;56.964;24.128;2023-05-29T10:24:01;6.22;;;4.20;;
7406;SDS011;3745;56.964;24.128;2023-05-29T10:26:34;9.15;;;4.65;;
7406;SDS011;3745;56.964;24.128;2023-05-29T10:35:00;7.72;;;4.50;;
7406;SDS011;3745;56.964;24.128;2023-05-29T10:40:12;3.60;;;2.97;;
7406;SDS011;3745;56.964;24.128;2023-05-29T10:42:42;3.60;;;3.10;;
7406;SDS011;3745;56.964;24.128;2023-05-29T10:50:42;2.80;;;2.60;;
7406;SDS011;3745;56.964;24.128;2023-05-29T10:53:22;5.88;;;2.90;;
7406;SDS011;3745;56.964;24.128;2023-05-29T10:55:53;3.70;;;2.80;;
7406;SDS011;3745;56.964;24.128;2023-05-29T10:58:19;2.85;;;2.65;;
7406;SDS011;3745;56.964;24.128;2023-05-29T11:00:46;4.80;;;3.30;;
7406;SDS011;3745;56.964;24.128;2023-05-29T11:03:17;3.55;;;2.70;;
7406;SDS011;3745;56.964;24.128;2023-05-29T11:08:53;5.35;;;3.45;;
7406;SDS011;3745;56.964;24.128;2023-05-29T11:11:40;3.58;;;3.28;;
7406;SDS011;3745;56.964;24.128;2023-05-29T11:14:07;5.18;;;2.90;;
7406;SDS011;3745;56.964;24.128;2023-05-29T11:18:59;3.40;;;3.10;;
7406;SDS011;3745;56.964;24.128;2023-05-29T11:26:59;3.00;;;2.75;;
7406;SDS011;3745;56.964;24.128;2023-05-29T11:29:30;3.58;;;2.53;;
7406;SDS011;3745;56.964;24.128;2023-05-29T11:32:02;4.05;;;3.40;;
7406;SDS011;3745;56.964;24.128;2023-05-29T11:34:37;5.30;;;3.03;;
7406;SDS011;3745;56.964;24.128;2023-05-29T11:37:09;8.02;;;5.00;;
7406;SDS011;3745;56.964;24.128;2023-05-29T11:39:36;9.15;;;8.18;;
7406;SDS011;3745;56.964;24.128;2023-05-29T11:42:02;12.13;;;10.65;;
7406;SDS011;3745;56.964;24.128;2023-05-29T11:44:28;11.80;;;10.70;;
7406;SDS011;3745;56.964;24.128;2023-05-29T11:49:32;7.25;;;6.53;;
7406;SDS011;3745;56.964;24.128;2023-05-29T11:52:14;4.40;;;3.20;;
7406;SDS011;3745;56.964;24.128;2023-05-29T11:54:40;9.07;;;5.97;;
7406;SDS011;3745;56.964;24.128;2023-05-29T11:57:18;7.30;;;5.18;;
7406;SDS011;3745;56.964;24.128;2023-05-29T11:59:45;5.95;;;5.43;;
7406;SDS011;3745;56.964;24.128;2023-05-29T12:02:11;5.72;;;5.10;;
7406;SDS011;3745;56.964;24.128;2023-05-29T12:04:37;6.63;;;4.82;;
7406;SDS011;3745;56.964;24.128;2023-05-29T12:07:16;10.23;;;6.93;;
7406;SDS011;3745;56.964;24.128;2023-05-29T12:09:43;6.97;;;6.35;;
7406;SDS011;3745;56.964;24.128;2023-05-29T12:12:09;10.73;;;5.63;;
7406;SDS011;3745;56.964;24.128;2023-05-29T12:14:35;8.75;;;5.18;;
7406;SDS011;3745;56.964;24.128;2023-05-29T12:17:00;9.98;;;5.18;;
7406;SDS011;3745;56.964;24.128;2023-05-29T12:19:29;10.05;;;4.70;;
7406;SDS011;3745;56.964;24.128;2023-05-29T12:21:56;5.15;;;4.20;;
7406;SDS011;3745;56.964;24.128;2023-05-29T12:24:24;5.05;;;4.43;;
7406;SDS011;3745;56.964;24.128;2023-05-29T12:26:50;4.60;;;4.30;;
7406;SDS011;3745;56.964;24.128;2023-05-29T12:29:16;5.90;;;5.43;;
7406;SDS011;3745;56.964;24.128;2023-05-29T12:31:41;14.90;;;6.78;;
7406;SDS011;3745;56.964;24.128;2023-05-29T12:34:08;13.48;;;8.70;;
7406;SDS011;3745;56.964;24.128;2023-05-29T12:36:35;11.68;;;8.07;;
7406;SDS011;3745;56.964;24.128;2023-05-29T12:39:04;10.90;;;7.85;;
7406;SDS011;3745;56.964;24.128;2023-05-29T12:41:33;10.23;;;8.50;;
7406;SDS011;3745;56.964;24.128;2023-05-29T12:44:03;11.43;;;7.82;;
7406;SDS011;3745;56.964;24.128;2023-05-29T12:46:43;12.87;;;8.40;;
7406;SDS011;3745;56.964;24.128;2023-05-29T12:49:13;16.45;;;5.97;;
7406;SDS011;3745;56.964;24.128;2023-05-29T12:51:44;6.50;;;5.53;;
7406;SDS011;3745;56.964;24.128;2023-05-29T12:54:11;6.07;;;3.78;;
7406;SDS011;3745;56.964;24.128;2023-05-29T12:56:40;7.50;;;4.13;;
7406;SDS011;3745;56.964;24.128;2023-05-29T12:59:11;8.32;;;4.60;;
7406;SDS011;3745;56.964;24.128;2023-05-29T13:01:37;7.03;;;3.88;;
7406;SDS011;3745;56.964;24.128;2023-05-29T13:04:06;9.65;;;4.55;;
7406;SDS011;3745;56.964;24.128;2023-05-29T13:06:35;5.22;;;4.80;;
7406;SDS011;3745;56.964;24.128;2023-05-29T13:09:02;4.82;;;4.40;;
7406;SDS011;3745;56.964;24.128;2023-05-29T13:11:29;9.02;;;4.30;;
7406;SDS011;3745;56.964;24.128;2023-05-29T13:13:55;4.00;;;3.42;;
7406;SDS011;3745;56.964;24.128;2023-05-29T13:16:20;5.80;;;3.67;;
7406;SDS011;3745;56.964;24.128;2023-05-29T13:18:46;3.30;;;2.70;;
7406;SDS011;3745;56.964;24.128;2023-05-29T13:21:12;6.82;;;3.00;;
7406;SDS011;3745;56.964;24.128;2023-05-29T13:23:38;5.20;;;2.83;;
7406;SDS011;3745;56.964;24.128;2023-05-29T13:26:04;10.30;;;2.80;;
7406;SDS011;3745;56.964;24.128;2023-05-29T13:28:30;7.88;;;3.33;;
7406;SDS011;3745;56.964;24.128;2023-05-29T13:30:56;6.95;;;2.80;;
7406;SDS011;3745;56.964;24.128;2023-05-29T13:33:21;5.78;;;3.17;;
7406;SDS011;3745;56.964;24.128;2023-05-29T13:35:47;6.00;;;2.90;;
7406;SDS011;3745;56.964;24.128;2023-05-29T13:38:13;3.47;;;2.50;;
7406;SDS011;3745;56.964;24.128;2023-05-29T13:40:38;3.45;;;2.65;;
7406;SDS011;3745;56.964;24.128;2023-05-29T13:43:04;5.20;;;2.95;;
7406;SDS011;3745;56.964;24.128;2023-05-29T13:45:30;4.72;;;3.05;;
7406;SDS011;3745;56.964;24.128;2023-05-29T13:47:56;3.30;;;2.60;;
7406;SDS011;3745;56.964;24.128;2023-05-29T13:50:21;3.28;;;2.50;;
7406;SDS011;3745;56.964;24.128;2023-05-29T13:52:48;3.78;;;2.60;;
7406;SDS011;3745;56.964;24.128;2023-05-29T13:55:14;5.22;;;2.78;;
7406;SDS011;3745;56.964;24.128;2023-05-29T13:57:40;2.50;;;2.30;;
7406;SDS011;3745;56.964;24.128;2023-05-29T14:00:07;4.32;;;2.95;;
7406;SDS011;3745;56.964;24.128;2023-05-29T14:02:36;7.60;;;3.15;;
7406;SDS011;3745;56.964;24.128;2023-05-29T14:05:01;5.15;;;3.15;;
7406;SDS011;3745;56.964;24.128;2023-05-29T14:07:27;2.80;;;2.60;;
7406;SDS011;3745;56.964;24.128;2023-05-29T14:09:53;7.05;;;3.40;;
7406;SDS011;3745;56.964;24.128;2023-05-29T14:12:18;3.70;;;2.80;;
7406;SDS011;3745;56.964;24.128;2023-05-29T14:14:44;3.20;;;2.75;;
7406;SDS011;3745;56.964;24.128;2023-05-29T14:17:10;4.43;;;2.70;;
7406;SDS011;3745;56.964;24.128;2023-05-29T14:19:37;5.13;;;2.20;;
7406;SDS011;3745;56.964;24.128;2023-05-29T14:22:03;4.38;;;2.60;;
7406;SDS011;3745;56.964;24.128;2023-05-29T14:24:29;5.25;;;2.75;;
7406;SDS011;3745;56.964;24.128;2023-05-29T14:26:55;3.95;;;2.63;;
7406;SDS011;3745;56.964;24.128;2023-05-29T14:29:20;3.42;;;2.78;;
7406;SDS011;3745;56.964;24.128;2023-05-29T14:31:46;3.55;;;2.50;;
7406;SDS011;3745;56.964;24.128;2023-05-29T14:34:12;4.00;;;3.10;;
7406;SDS011;3745;56.964;24.128;2023-05-29T14:36:38;4.30;;;2.70;;
7406;SDS011;3745;56.964;24.128;2023-05-29T14:39:04;2.33;;;2.05;;
7406;SDS011;3745;56.964;24.128;2023-05-29T14:41:31;4.03;;;2.63;;
7406;SDS011;3745;56.964;24.128;2023-05-29T14:43:57;5.18;;;2.63;;
7406;SDS011;3745;56.964;24.128;2023-05-29T14:46:26;4.25;;;2.25;;
7406;SDS011;3745;56.964;24.128;2023-05-29T14:48:56;4.60;;;2.45;;
7406;SDS011;3745;56.964;24.128;2023-05-29T14:51:26;4.70;;;2.60;;
7406;SDS011;3745;56.964;24.128;2023-05-29T14:53:52;3.70;;;2.38;;
7406;SDS011;3745;56.964;24.128;2023-05-29T14:56:17;4.80;;;2.80;;
7406;SDS011;3745;56.964;24.128;2023-05-29T14:58:44;4.13;;;2.60;;
7406;SDS011;3745;56.964;24.128;2023-05-29T15:01:10;5.95;;;3.00;;
7406;SDS011;3745;56.964;24.128;2023-05-29T15:03:36;5.20;;;2.70;;
7406;SDS011;3745;56.964;24.128;2023-05-29T15:06:02;3.70;;;2.60;;
7406;SDS011;3745;56.964;24.128;2023-05-29T15:08:29;6.47;;;2.70;;
7406;SDS011;3745;56.964;24.128;2023-05-29T15:10:59;4.43;;;2.47;;
7406;SDS011;3745;56.964;24.128;2023-05-29T15:13:28;3.13;;;2.53;;
7406;SDS011;3745;56.964;24.128;2023-05-29T15:15:54;2.83;;;2.20;;
7406;SDS011;3745;56.964;24.128;2023-05-29T15:18:19;5.40;;;2.60;;
7406;SDS011;3745;56.964;24.128;2023-05-29T15:20:45;3.50;;;2.42;;
7406;SDS011;3745;56.964;24.128;2023-05-29T15:23:11;4.47;;;2.45;;
7406;SDS011;3745;56.964;24.128;2023-05-29T15:25:36;6.75;;;2.92;;
7406;SDS011;3745;56.964;24.128;2023-05-29T15:28:02;4.97;;;2.60;;
7406;SDS011;3745;56.964;24.128;2023-05-29T15:30:28;3.45;;;2.85;;